Time;durP1;ratioP1;P1;durP2;ratioP2;P2;SDS_P1;SDS_P2;PMS_P1;PMS_P2;Temp;Humidity;BMP_temperature;BMP_pressure;BME280_temperature;BME280_humidity;BME280_pressure;Samples;Min_cycle;Max_cycle;Signal;HPM_P1;HPM_P2
2023/03/03 00:00:16;;;;;;;10.27;7.03;;;;;;;0.92;67.16;97837.97;6267907;28;20257;-38
2023/03/03 00:03:21;;;;;;;11.37;7.70;;;;;;;1.17;67.03;97872.69;6271599;28;20211;-38
2023/03/03 00:06:24;;;;;;;11.67;8.00;;;;;;;1.17;67.04;97870.06;6268594;28;20641;-38
2023/03/03 00:09:26;;;;;;;15.03;9.43;;;;;;;1.16;66.81;97876.31;6262539;28;20601;-38
2023/03/03 00:12:30;;;;;;;11.10;8.10;;;;;;;1.17;67.09;97878.75;6268761;28;20690;-38
2023/03/03 00:15:32;;;;;;;11.50;8.20;;;;;;;1.12;66.83;97865.34;6268649;28;20324;-38
2023/03/03 00:18:36;;;;;;;12.97;8.80;;;;;;;1.18;66.85;97869.91;6265208;28;20723;-38
2023/03/03 00:21:45;;;;;;;12.33;8.60;;;;;;;1.20;66.73;97875.78;6270277;28;20235;-38
2023/03/03 00:24:48;;;;;;;11.20;8.00;;;;;;;1.22;66.81;97870.34;6271548;28;20602;-38
2023/03/03 00:27:50;;;;;;;12.13;8.30;;;;;;;1.23;66.83;97870.19;6267416;28;20227;-39
2023/03/03 00:30:55;;;;;;;12.40;8.47;;;;;;;1.19;67.01;97874.16;6268121;28;20281;-38
2023/03/03 00:34:19;;;;;;;13.40;8.90;;;;;;;1.11;67.16;97855.03;6266237;28;20222;-38
2023/03/03 00:37:33;;;;;;;12.50;7.90;;;;;;;1.25;66.97;97865.56;6266135;28;20291;-38
2023/03/03 00:40:38;;;;;;;11.33;7.63;;;;;;;1.27;67.04;97868.81;6266032;28;20311;-38
2023/03/03 00:43:41;;;;;;;13.50;8.30;;;;;;;1.27;67.03;97868.81;6269309;28;20234;-38
2023/03/03 00:46:43;;;;;;;12.93;8.37;;;;;;;1.29;67.06;97860.78;6265675;28;20321;-38
2023/03/03 00:49:44;;;;;;;10.87;8.00;;;;;;;1.24;67.26;97869.19;6264002;28;20231;-39
2023/03/03 00:53:18;;;;;;;12.73;8.00;;;;;;;1.29;67.28;97863.41;6269372;28;20602;-38
2023/03/03 00:56:21;;;;;;;12.90;8.27;;;;;;;1.31;67.28;97864.03;6272610;28;20229;-38
2023/03/03 00:59:23;;;;;;;11.27;8.50;;;;;;;1.27;67.51;97847.81;6266953;28;20270;-38
2023/03/03 01:02:25;;;;;;;11.47;9.00;;;;;;;1.25;67.87;97852.44;6251512;28;20371;-38
2023/03/03 01:05:27;;;;;;;12.53;8.83;;;;;;;1.21;67.45;97845.09;6268382;28;20255;-38
2023/03/03 01:08:29;;;;;;;11.50;8.00;;;;;;;1.22;67.40;97847.53;6269846;28;20323;-38
2023/03/03 01:11:32;;;;;;;13.43;9.37;;;;;;;1.21;67.26;97852.97;6258417;28;20233;-39
2023/03/03 01:14:34;;;;;;;11.90;8.03;;;;;;;1.03;67.27;97825.28;6268013;28;20242;-39
2023/03/03 01:17:38;;;;;;;16.50;9.10;;;;;;;1.11;67.36;97844.53;6261128;28;20231;-38
2023/03/03 01:20:41;;;;;;;13.27;8.80;;;;;;;1.05;67.33;97838.19;6267382;28;20325;-38
2023/03/03 01:23:43;;;;;;;14.33;8.77;;;;;;;1.00;67.15;97835.31;6267523;28;20317;-38
2023/03/03 01:26:45;;;;;;;12.53;8.37;;;;;;;0.95;66.88;97837.63;6292297;28;20313;-38
2023/03/03 01:29:47;;;;;;;10.70;8.47;;;;;;;0.91;67.24;97826.69;6293519;28;20240;-38
2023/03/03 01:32:49;;;;;;;12.17;8.53;;;;;;;0.82;66.89;97822.47;6290599;28;20647;-38
2023/03/03 01:35:51;;;;;;;14.37;9.53;;;;;;;0.83;67.03;97826.72;6287761;28;20314;-38
2023/03/03 01:38:53;;;;;;;14.27;9.40;;;;;;;0.78;66.57;97824.63;6290658;28;20591;-38
2023/03/03 01:41:55;;;;;;;14.00;9.73;;;;;;;0.73;66.64;97813.03;6290884;28;20231;-38
2023/03/03 01:45:18;;;;;;;14.63;10.27;;;;;;;0.70;66.52;97813.41;6290558;28;20901;-38
2023/03/03 01:48:29;;;;;;;15.17;10.10;;;;;;;0.54;66.63;97792.53;6261440;28;20302;-39
2023/03/03 01:51:36;;;;;;;14.63;10.27;;;;;;;0.63;66.80;97804.59;6291900;28;20230;-38
2023/03/03 01:54:43;;;;;;;12.80;9.17;;;;;;;0.58;66.96;97814.81;6273386;28;20225;-38
2023/03/03 01:57:55;;;;;;;14.43;9.50;;;;;;;0.51;67.04;97818.13;6290256;28;20226;-38
2023/03/03 02:01:02;;;;;;;13.83;9.80;;;;;;;0.51;67.12;97820.75;6293407;28;20226;-39
2023/03/03 02:04:05;;;;;;;17.47;10.37;;;;;;;0.51;66.63;97815.50;6275269;28;20331;-38
2023/03/03 02:07:10;;;;;;;14.20;9.47;;;;;;;0.52;67.24;97817.13;6272929;28;20375;-38
2023/03/03 02:10:15;;;;;;;16.43;10.30;;;;;;;0.51;66.54;97819.94;6310699;28;20706;-38
2023/03/03 02:13:17;;;;;;;16.33;9.77;;;;;;;0.51;67.29;97814.69;6273211;28;20226;-38
2023/03/03 02:16:20;;;;;;;13.33;9.60;;;;;;;-0.02;67.01;97729.91;6289183;28;20324;-38
2023/03/03 02:19:35;;;;;;;15.77;10.10;;;;;;;0.18;67.21;97756.44;6289375;28;20234;-38
2023/03/03 02:22:58;;;;;;;16.30;9.90;;;;;;;0.48;67.19;97797.50;6294652;28;20709;-38
2023/03/03 02:26:07;;;;;;;13.80;9.40;;;;;;;0.66;67.14;97812.94;6255996;28;20747;-38
2023/03/03 02:29:09;;;;;;;13.10;9.57;;;;;;;0.66;67.33;97807.69;6271895;28;20257;-38
2023/03/03 02:32:13;;;;;;;14.03;8.10;;;;;;;0.72;67.17;97812.22;6270955;28;20231;-38
2023/03/03 02:35:26;;;;;;;14.07;9.37;;;;;;;0.74;67.84;97804.22;6288062;28;20238;-38
2023/03/03 02:38:34;;;;;;;13.10;9.00;;;;;;;0.81;67.54;97806.94;6291244;28;20714;-38
2023/03/03 02:42:17;;;;;;;14.80;9.60;;;;;;;0.85;67.19;97803.78;6289516;28;20225;-38
2023/03/03 02:45:24;;;;;;;13.40;9.20;;;;;;;0.77;67.70;97803.84;6198228;28;20307;-38
2023/03/03 02:48:26;;;;;;;13.50;9.70;;;;;;;0.83;67.75;97799.69;6212239;28;20610;-38
2023/03/03 02:51:28;;;;;;;15.50;9.33;;;;;;;0.85;67.92;97801.16;6208207;28;20232;-38
2023/03/03 02:54:30;;;;;;;14.00;9.50;;;;;;;0.87;68.08;97793.91;6212907;28;20231;-39
2023/03/03 02:57:35;;;;;;;12.47;8.87;;;;;;;0.90;67.72;97788.34;6204818;28;20809;-38
2023/03/03 03:00:38;;;;;;;13.33;9.07;;;;;;;0.93;67.60;97787.97;6211499;28;20232;-38
2023/03/03 03:03:40;;;;;;;12.43;9.10;;;;;;;0.96;67.60;97789.44;6201315;28;20244;-38
2023/03/03 03:06:43;;;;;;;15.30;9.03;;;;;;;0.70;67.76;97753.13;6195197;28;20310;-38
2023/03/03 03:09:48;;;;;;;15.00;9.37;;;;;;;0.95;67.69;97790.44;6199979;28;20236;-38
2023/03/03 03:12:51;;;;;;;14.03;9.30;;;;;;;0.92;67.89;97788.97;6213933;28;20264;-38
2023/03/03 03:15:53;;;;;;;13.33;9.00;;;;;;;0.93;67.96;97792.41;6201557;28;20230;-38
2023/03/03 03:18:55;;;;;;;12.27;8.43;;;;;;;0.93;68.31;97787.97;6228331;28;20787;-39
2023/03/03 03:21:57;;;;;;;12.03;8.40;;;;;;;0.93;68.40;97787.97;6290438;28;20375;-38
2023/03/03 03:25:00;;;;;;;12.90;8.57;;;;;;;0.95;68.43;97793.03;6278575;28;20323;-39
2023/03/03 03:28:03;;;;;;;12.57;8.80;;;;;;;0.99;68.16;97800.38;6271872;28;20321;-38
2023/03/03 03:31:07;;;;;;;14.17;9.30;;;;;;;0.33;68.02;97667.44;6274055;28;20268;-38
2023/03/03 03:34:09;;;;;;;12.07;9.10;;;;;;;1.14;68.05;97781.22;6268993;28;20369;-38
2023/03/03 03:37:11;;;;;;;12.27;8.20;;;;;;;1.18;68.11;97779.84;6288287;28;20238;-38
2023/03/03 03:40:15;;;;;;;13.67;8.27;;;;;;;1.21;67.67;97782.13;6278385;28;20233;-38
2023/03/03 03:43:18;;;;;;;10.80;8.07;;;;;;;1.24;67.86;97784.41;6289742;28;20221;-38
2023/03/03 03:46:20;;;;;;;12.13;7.77;;;;;;;1.24;67.65;97782.59;6275532;28;20324;-38
2023/03/03 03:49:23;;;;;;;10.87;7.73;;;;;;;1.25;67.62;97775.53;6276705;28;20326;-38
2023/03/03 03:52:27;;;;;;;11.97;8.03;;;;;;;1.23;67.74;97777.50;6271922;28;20705;-37
2023/03/03 03:55:29;;;;;;;14.10;8.87;;;;;;;1.19;67.32;97779.69;6271173;28;20237;-38
2023/03/03 03:58:31;;;;;;;13.50;8.60;;;;;;;1.13;67.24;97785.63;6271557;28;20270;-38
2023/03/03 04:01:37;;;;;;;11.60;8.30;;;;;;;1.02;67.22;97778.22;6270671;28;20529;-38
2023/03/03 04:04:39;;;;;;;11.67;8.37;;;;;;;0.94;67.58;97778.31;6271798;28;20234;-37
2023/03/03 04:07:41;;;;;;;13.13;8.80;;;;;;;0.78;67.56;97776.63;6292494;28;20345;-38
2023/03/03 04:10:43;;;;;;;13.30;8.23;;;;;;;0.76;67.29;97782.06;6292375;28;20271;-38
2023/03/03 04:13:45;;;;;;;10.97;7.70;;;;;;;0.56;67.03;97761.75;6272172;28;20724;-38
2023/03/03 04:16:48;;;;;;;10.97;7.73;;;;;;;0.60;67.10;97781.38;6270578;28;20822;-38
2023/03/03 04:19:53;;;;;;;13.83;8.13;;;;;;;0.42;67.35;97763.31;6270935;28;20664;-39
2023/03/03 04:22:56;;;;;;;15.80;9.43;;;;;;;0.43;66.98;97791.16;6306044;28;20268;-38
2023/03/03 04:25:59;;;;;;;18.80;9.17;;;;;;;0.36;67.14;97790.25;6254720;28;20646;-38
2023/03/03 04:29:01;;;;;;;16.53;10.47;;;;;;;0.29;67.00;97786.66;6300873;28;20234;-38
2023/03/03 04:32:04;;;;;;;17.63;11.80;;;;;;;0.21;67.03;97795.41;6272879;28;20278;-39
2023/03/03 04:35:07;;;;;;;18.43;11.67;;;;;;;0.13;67.33;97804.13;6276939;28;20249;-39
2023/03/03 04:38:14;;;;;;;19.50;12.57;;;;;;;0.08;67.26;97800.38;6276821;28;20226;-38
2023/03/03 04:41:17;;;;;;;18.20;12.87;;;;;;;0.04;67.19;97802.53;6295278;28;20263;-39
2023/03/03 04:44:19;;;;;;;20.33;13.30;;;;;;;0.00;67.18;97803.88;6273612;28;20225;-38
2023/03/03 04:47:23;;;;;;;22.03;13.63;;;;;;;-0.04;67.20;97807.81;6274259;28;20595;-39
2023/03/03 04:50:26;;;;;;;17.60;12.57;;;;;;;-0.10;67.06;97806.72;6274613;28;20241;-38
2023/03/03 04:53:28;;;;;;;20.90;13.10;;;;;;;-0.52;67.01;97744.22;6292853;28;20268;-38
2023/03/03 04:56:30;;;;;;;23.27;13.57;;;;;;;-0.55;67.28;97755.03;6276502;28;20237;-39
2023/03/03 04:59:34;;;;;;;18.93;12.17;;;;;;;-0.95;67.20;97704.47;6270624;28;20234;-43
2023/03/03 05:02:37;;;;;;;20.93;12.73;;;;;;;-0.38;67.69;97793.25;6273459;28;20229;-42
2023/03/03 05:05:40;;;;;;;18.60;12.03;;;;;;;-0.31;67.38;97815.13;6274853;28;20302;-39
2023/03/03 05:08:42;;;;;;;18.07;11.00;;;;;;;-0.60;67.73;97781.69;6292819;28;20224;-39
2023/03/03 05:11:44;;;;;;;18.37;10.97;;;;;;;-0.40;67.74;97813.50;6292561;28;20260;-39
2023/03/03 05:14:46;;;;;;;16.77;11.03;;;;;;;-0.42;67.76;97815.50;6277756;28;20611;-38
2023/03/03 05:17:48;;;;;;;15.87;10.00;;;;;;;-0.46;67.92;97818.63;6290295;28;20240;-39
2023/03/03 05:20:51;;;;;;;19.13;12.00;;;;;;;-0.50;67.79;97818.13;6291620;28;20226;-38
2023/03/03 05:23:53;;;;;;;16.87;10.63;;;;;;;-0.51;67.89;97816.50;6289058;28;20233;-38
2023/03/03 05:26:55;;;;;;;16.50;11.30;;;;;;;-0.52;67.87;97820.91;6291473;28;20234;-43
2023/03/03 05:29:57;;;;;;;18.13;10.87;;;;;;;-0.53;68.04;97815.88;6294127;28;20578;-40
2023/03/03 05:33:00;;;;;;;17.10;10.57;;;;;;;-0.56;67.88;97819.63;6291019;28;20709;-40
2023/03/03 05:36:02;;;;;;;17.50;10.77;;;;;;;-0.60;67.86;97820.13;6274083;28;20226;-38
2023/03/03 05:39:04;;;;;;;15.20;10.23;;;;;;;-0.60;68.10;97820.94;6291337;28;20218;-37
2023/03/03 05:42:06;;;;;;;14.70;10.43;;;;;;;-0.55;67.76;97823.06;6291354;28;20221;-38
2023/03/03 05:45:08;;;;;;;13.33;9.43;;;;;;;-0.83;67.85;97784.22;6271850;28;20225;-38
2023/03/03 05:48:10;;;;;;;14.73;10.47;;;;;;;-0.54;67.98;97836.00;6293632;28;20218;-39
2023/03/03 05:51:12;;;;;;;17.43;11.37;;;;;;;-0.50;67.91;97836.44;6291386;28;20224;-38
2023/03/03 05:54:14;;;;;;;17.47;10.70;;;;;;;-0.48;67.90;97852.00;6269397;28;20216;-38
2023/03/03 05:57:17;;;;;;;21.77;11.47;;;;;;;-0.73;67.82;97814.63;6293617;28;20217;-55
2023/03/03 06:00:19;;;;;;;17.20;11.50;;;;;;;-0.42;67.91;97846.91;6273385;28;20213;-38
2023/03/03 06:03:21;;;;;;;16.80;10.90;;;;;;;-0.46;67.80;97834.31;6290298;28;20371;-38
2023/03/03 06:06:23;;;;;;;17.33;10.47;;;;;;;-0.25;68.25;97850.28;6293855;28;20230;-38
2023/03/03 06:09:25;;;;;;;15.93;10.40;;;;;;;-0.16;68.55;97851.06;6291971;28;20646;-38
2023/03/03 06:12:27;;;;;;;16.00;9.77;;;;;;;-0.03;68.06;97848.72;6291421;28;20309;-38
2023/03/03 06:15:29;;;;;;;14.10;9.80;;;;;;;0.13;68.16;97848.66;6291583;28;20594;-38
2023/03/03 06:18:31;;;;;;;15.60;10.27;;;;;;;0.22;67.95;97855.47;6285657;28;20303;-38
2023/03/03 06:21:33;;;;;;;21.87;13.37;;;;;;;0.41;67.35;97856.84;6292557;28;20225;-38
2023/03/03 06:24:35;;;;;;;21.80;15.10;;;;;;;0.58;66.86;97867.22;6293730;28;20236;-38
2023/03/03 06:27:37;;;;;;;21.33;14.27;;;;;;;0.74;67.23;97861.91;6290189;28;20776;-38
2023/03/03 06:30:39;;;;;;;23.47;14.70;;;;;;;0.82;66.81;97856.56;6288497;28;20272;-38
2023/03/03 06:33:42;;;;;;;24.73;15.17;;;;;;;1.00;66.80;97862.34;6287849;28;20219;-38
2023/03/03 06:36:44;;;;;;;26.53;16.87;;;;;;;1.16;66.26;97871.06;6271429;28;20710;-38
2023/03/03 06:39:46;;;;;;;25.80;16.80;;;;;;;1.25;65.66;97872.63;6292360;28;20379;-38
2023/03/03 06:42:48;;;;;;;27.40;17.63;;;;;;;1.18;65.76;97843.66;6289436;28;20251;-38
2023/03/03 06:45:50;;;;;;;22.70;14.37;;;;;;;1.39;65.86;97871.03;6288050;28;20218;-38
2023/03/03 06:48:52;;;;;;;29.60;17.20;;;;;;;1.34;66.11;97871.56;6272343;28;20689;-38
2023/03/03 06:51:57;;;;;;;28.43;19.23;;;;;;;1.41;65.82;97863.78;6289221;28;20676;-38
2023/03/03 06:55:08;;;;;;;33.30;20.23;;;;;;;1.48;65.54;97865.53;6294117;28;20306;-37
2023/03/03 06:58:13;;;;;;;24.07;17.00;;;;;;;1.52;64.67;97861.53;6289071;28;20772;-38
2023/03/03 07:01:16;;;;;;;26.37;15.83;;;;;;;1.72;64.02;97871.50;6288893;28;20235;-38
2023/03/03 07:04:28;;;;;;;26.57;17.37;;;;;;;1.59;65.58;97852.94;6288792;28;20233;-38
2023/03/03 07:07:30;;;;;;;23.20;15.27;;;;;;;1.80;64.42;97880.09;6286543;28;20718;-38
2023/03/03 07:10:32;;;;;;;23.40;15.00;;;;;;;1.93;65.36;97878.69;6290777;28;20700;-38
2023/03/03 07:13:39;;;;;;;25.40;16.43;;;;;;;2.08;64.85;97878.66;6293218;28;20229;-39
2023/03/03 07:16:41;;;;;;;22.37;14.83;;;;;;;2.16;64.74;97881.97;6286844;28;20226;-38
2023/03/03 07:19:45;;;;;;;23.93;15.37;;;;;;;2.24;64.63;97886.34;6271930;28;20221;-38
2023/03/03 07:22:48;;;;;;;21.00;14.97;;;;;;;2.26;64.44;97890.41;6291116;28;20713;-38
2023/03/03 07:25:51;;;;;;;20.90;13.77;;;;;;;2.24;64.76;97874.00;6288502;28;20582;-38
2023/03/03 07:29:13;;;;;;;21.30;14.50;;;;;;;2.28;64.55;97862.13;6288218;28;20230;-38
2023/03/03 07:32:32;;;;;;;20.17;12.77;;;;;;;2.64;64.41;97892.88;6295061;28;20367;-38
2023/03/03 07:35:42;;;;;;;20.43;13.10;;;;;;;2.68;64.63;97907.28;6290119;28;20230;-39
2023/03/03 07:38:53;;;;;;;21.30;14.30;;;;;;;2.80;64.60;97899.69;6290372;28;20604;-38
2023/03/03 07:42:28;;;;;;;19.67;13.97;;;;;;;2.90;65.09;97909.91;6269416;28;20307;-39
2023/03/03 07:45:42;;;;;;;24.00;14.20;;;;;;;2.99;64.59;97898.28;6268762;28;20232;-38
2023/03/03 07:48:44;;;;;;;26.43;17.73;;;;;;;3.11;63.09;97902.06;6287120;28;20217;-39
2023/03/03 07:51:47;;;;;;;42.10;24.93;;;;;;;3.44;60.69;97904.13;6288453;28;20233;-39
2023/03/03 07:54:49;;;;;;;41.40;25.60;;;;;;;3.76;58.44;97893.03;6287889;28;20216;-38
2023/03/03 07:57:53;;;;;;;37.87;25.30;;;;;;;4.08;56.83;97896.84;6289927;28;20603;-40
2023/03/03 08:01:33;;;;;;;46.07;27.57;;;;;;;4.33;55.80;97907.72;6289220;28;20245;-39
2023/03/03 08:04:49;;;;;;;41.27;26.07;;;;;;;4.56;55.25;97907.41;6288105;28;20701;-38
2023/03/03 08:07:51;;;;;;;40.93;26.57;;;;;;;4.84;53.86;97909.94;6287496;28;20234;-39
2023/03/03 08:10:56;;;;;;;41.60;26.40;;;;;;;5.24;53.89;97917.94;6296101;28;20489;-39
2023/03/03 08:13:58;;;;;;;38.13;26.60;;;;;;;5.72;52.26;97919.56;6292829;28;20724;-39
2023/03/03 08:17:01;;;;;;;39.63;25.83;;;;;;;6.25;50.42;97916.84;6292871;28;20229;-38
2023/03/03 08:20:35;;;;;;;42.23;26.87;;;;;;;8.32;45.38;97923.97;6288931;28;20814;-38
2023/03/03 08:23:37;;;;;;;38.33;24.57;;;;;;;10.74;39.48;97914.50;6296097;28;20337;-40
2023/03/03 08:26:39;;;;;;;36.77;24.93;;;;;;;12.87;34.58;97921.53;6292324;28;20315;-39
2023/03/03 08:29:41;;;;;;;36.70;24.70;;;;;;;15.33;30.45;97919.41;6293687;28;20799;-37
2023/03/03 08:32:43;;;;;;;34.33;25.13;;;;;;;17.63;25.86;97901.47;6290192;28;20605;-37
2023/03/03 08:35:46;;;;;;;37.73;25.67;;;;;;;18.25;24.95;97924.13;6292780;28;20748;-37
2023/03/03 08:38:48;;;;;;;32.70;24.93;;;;;;;16.63;26.67;97920.63;6293012;28;20230;-37
2023/03/03 08:41:50;;;;;;;33.00;25.37;;;;;;;15.38;28.42;97919.41;6293426;28;20832;-38
2023/03/03 08:44:52;;;;;;;35.60;25.20;;;;;;;13.73;30.95;97915.41;6291739;28;20225;-44
2023/03/03 08:47:55;;;;;;;33.70;25.83;;;;;;;14.69;30.32;97918.69;6292759;28;20230;-37
2023/03/03 08:50:57;;;;;;;33.07;24.53;;;;;;;14.11;29.79;97892.91;6293013;28;20237;-40
2023/03/03 08:53:59;;;;;;;33.80;25.10;;;;;;;12.80;31.88;97918.22;6294804;28;20231;-40
2023/03/03 08:57:01;;;;;;;39.73;28.03;;;;;;;10.70;35.67;97914.16;6294735;28;20230;-37
2023/03/03 09:00:06;;;;;;;35.80;26.30;;;;;;;9.89;38.51;97905.22;6294733;28;20217;-39
2023/03/03 09:03:08;;;;;;;36.13;26.33;;;;;;;9.55;39.23;97920.09;6289509;28;20299;-38
2023/03/03 09:06:11;;;;;;;39.93;26.90;;;;;;;9.44;38.98;97916.38;6261276;28;20371;-38
2023/03/03 09:09:13;;;;;;;37.73;26.30;;;;;;;8.94;40.04;97919.38;6292120;28;20233;-38
2023/03/03 09:12:23;;;;;;;36.23;25.80;;;;;;;9.05;40.06;97925.75;6293444;28;20667;-40
2023/03/03 09:15:37;;;;;;;37.73;25.83;;;;;;;8.82;40.34;97917.69;6293453;28;20256;-39
2023/03/03 09:18:39;;;;;;;36.13;25.23;;;;;;;9.07;41.32;97913.06;6287709;28;20241;-41
2023/03/03 09:21:42;;;;;;;38.50;26.53;;;;;;;9.29;42.00;97921.31;6293064;28;20276;-41
2023/03/03 09:24:46;;;;;;;39.93;25.53;;;;;;;9.23;41.21;97908.94;6278043;28;20693;-40
2023/03/03 09:27:48;;;;;;;37.47;25.57;;;;;;;9.45;40.69;97917.19;6288812;28;20242;-38
2023/03/03 09:30:52;;;;;;;33.40;25.17;;;;;;;9.48;40.86;97922.88;6274924;28;20243;-41
2023/03/03 09:33:56;;;;;;;35.90;24.63;;;;;;;9.59;40.08;97926.59;6293593;28;20612;-40
2023/03/03 09:36:58;;;;;;;33.17;24.23;;;;;;;9.71;40.39;97943.38;6273839;28;20256;-39
2023/03/03 09:40:30;;;;;;;36.07;26.07;;;;;;;9.62;39.25;97910.19;6274574;28;20225;-39
2023/03/03 09:43:58;;;;;;;36.40;24.73;;;;;;;9.67;39.83;97946.72;6300309;28;20577;-39
2023/03/03 09:47:31;;;;;;;33.83;23.60;;;;;;;9.45;39.55;97955.22;6287688;28;20222;-39
2023/03/03 09:50:36;;;;;;;33.60;23.50;;;;;;;9.21;40.12;97956.19;6291777;28;20235;-39
2023/03/03 09:53:47;;;;;;;35.30;24.53;;;;;;;9.36;40.23;97964.59;6291277;28;20630;-38
2023/03/03 09:57:09;;;;;;;32.37;24.50;;;;;;;9.37;39.64;97968.88;6290227;28;20249;-39
2023/03/03 10:00:35;;;;;;;34.07;23.97;;;;;;;9.42;39.84;97965.53;6288935;28;20235;-40
2023/03/03 10:03:45;;;;;;;34.33;24.53;;;;;;;9.43;39.59;97967.94;6289643;28;20241;-39
2023/03/03 10:07:12;;;;;;;32.70;22.90;;;;;;;9.73;38.87;97953.78;6293201;28;20360;-39
2023/03/03 10:10:37;;;;;;;31.73;23.13;;;;;;;9.83;38.44;97906.94;6292420;28;20242;-41
2023/03/03 10:13:39;;;;;;;27.30;20.23;;;;;;;10.09;38.78;97952.75;6287506;28;20251;-38
2023/03/03 10:16:44;;;;;;;27.33;20.47;;;;;;;10.39;38.19;97957.97;6289158;28;20330;-39
2023/03/03 10:19:56;;;;;;;27.17;19.63;;;;;;;10.54;37.06;97939.69;6288816;28;20712;-39
2023/03/03 10:23:24;;;;;;;27.33;19.10;;;;;;;10.80;36.22;97954.31;6292702;28;20321;-41
2023/03/03 10:27:11;;;;;;;29.27;19.60;;;;;;;10.56;36.93;97950.91;6289243;28;20765;-43
2023/03/03 10:30:32;;;;;;;24.57;19.23;;;;;;;10.64;37.69;97949.75;6268886;28;20228;-38
2023/03/03 10:34:08;;;;;;;25.37;17.70;;;;;;;11.17;36.13;97943.28;6289452;28;20306;-39
2023/03/03 10:37:49;;;;;;;23.23;17.47;;;;;;;11.69;35.45;97950.31;6290339;28;20283;-39
2023/03/03 10:41:08;;;;;;;23.73;17.93;;;;;;;11.84;35.42;97937.25;6251535;28;20529;-39
2023/03/03 10:44:36;;;;;;;24.73;18.17;;;;;;;11.83;34.69;97935.63;6278023;28;20225;-38
2023/03/03 10:47:47;;;;;;;24.23;17.20;;;;;;;11.84;34.97;97924.72;6290998;28;20322;-40
2023/03/03 10:51:01;;;;;;;24.90;17.93;;;;;;;12.11;34.50;97919.50;6271137;28;20291;-39
2023/03/03 10:54:35;;;;;;;25.17;19.07;;;;;;;11.58;34.75;97926.16;6288257;28;20639;-38
2023/03/03 10:57:55;;;;;;;28.27;19.00;;;;;;;11.56;35.57;97917.56;6281955;28;20687;-40
2023/03/03 11:01:18;;;;;;;26.93;18.60;;;;;;;11.93;34.42;97918.97;6289275;28;20814;-39
2023/03/03 11:04:43;;;;;;;23.13;18.27;;;;;;;12.02;33.70;97918.31;6288908;28;20549;-39
2023/03/03 11:08:27;;;;;;;23.93;17.80;;;;;;;11.83;34.31;97904.41;6288456;28;20806;-39
2023/03/03 11:11:57;;;;;;;24.00;17.57;;;;;;;11.96;34.02;97905.91;6214240;28;20238;-39
2023/03/03 11:15:03;;;;;;;25.07;17.13;;;;;;;11.79;33.54;97905.91;6216804;28;20227;-41
2023/03/03 11:18:26;;;;;;;25.20;17.70;;;;;;;11.48;34.12;97904.63;6208918;28;20228;-39
2023/03/03 11:21:50;;;;;;;20.63;14.90;;;;;;;11.52;33.17;97887.06;6211574;28;20293;-39
2023/03/03 11:25:10;;;;;;;22.47;16.37;;;;;;;12.07;33.55;97898.88;6213577;28;20248;-39
2023/03/03 11:28:31;;;;;;;25.57;17.53;;;;;;;12.24;33.09;97912.19;6211485;28;20322;-39
2023/03/03 11:31:43;;;;;;;23.37;18.20;;;;;;;12.16;33.17;97897.38;6207526;28;20251;-39
2023/03/03 11:35:12;;;;;;;23.53;18.73;;;;;;;12.24;33.57;97888.97;6211804;28;20240;-40
2023/03/03 11:38:20;;;;;;;25.27;18.10;;;;;;;12.21;33.02;97902.00;6211863;28;20476;-39
2023/03/03 11:41:36;;;;;;;24.90;19.07;;;;;;;12.08;33.89;97912.00;6211562;28;20235;-39
2023/03/03 11:44:46;;;;;;;23.63;18.33;;;;;;;11.85;34.17;97890.81;6215145;28;20242;-38
2023/03/03 11:48:05;;;;;;;22.10;17.63;;;;;;;12.05;34.52;97891.09;6260254;28;20716;-40
2023/03/03 11:51:37;;;;;;;24.47;17.53;;;;;;;11.83;34.06;97892.94;6268990;28;20243;-44
2023/03/03 11:54:53;;;;;;;23.87;18.47;;;;;;;11.59;35.02;97873.59;6267334;28;20726;-39
2023/03/03 11:58:23;;;;;;;25.20;18.87;;;;;;;11.41;34.77;97874.63;6268974;28;20229;-40
2023/03/03 12:01:35;;;;;;;24.97;19.03;;;;;;;11.19;35.39;97857.75;6269004;28;20522;-39
2023/03/03 12:04:49;;;;;;;25.27;18.97;;;;;;;10.92;36.57;97869.00;6266615;28;20790;-40
2023/03/03 12:08:06;;;;;;;25.93;19.90;;;;;;;10.79;36.73;97853.31;6272816;28;20703;-39
2023/03/03 12:11:24;;;;;;;23.67;17.47;;;;;;;11.15;35.74;97859.25;6266557;28;20262;-40
2023/03/03 12:14:42;;;;;;;25.07;17.50;;;;;;;11.52;35.02;97854.25;6265743;28;20266;-39
2023/03/03 12:18:07;;;;;;;23.90;18.10;;;;;;;11.63;35.44;97854.19;6263396;28;20229;-39
2023/03/03 12:21:25;;;;;;;25.53;17.53;;;;;;;11.75;34.70;97847.94;6272401;28;20641;-39
2023/03/03 12:24:58;;;;;;;26.47;19.00;;;;;;;11.79;34.49;97841.06;6275016;28;20230;-39
2023/03/03 12:28:00;;;;;;;23.63;17.27;;;;;;;11.83;33.91;97845.69;6296916;28;20631;-39
2023/03/03 12:31:02;;;;;;;21.77;16.23;;;;;;;11.94;34.54;97827.16;6292351;28;20230;-38
2023/03/03 12:34:45;;;;;;;21.43;16.10;;;;;;;12.05;33.87;97835.03;6295277;28;20620;-38
2023/03/03 12:37:56;;;;;;;22.17;17.77;;;;;;;11.76;34.64;97847.69;6205996;28;20293;-39
2023/03/03 12:41:24;;;;;;;24.33;17.53;;;;;;;11.68;34.73;97833.97;6293761;28;21005;-39
2023/03/03 12:44:40;;;;;;;23.03;17.53;;;;;;;11.88;34.54;97834.28;6279475;28;20240;-39
2023/03/03 12:47:50;;;;;;;23.33;18.33;;;;;;;11.37;34.93;97828.94;6292664;28;20229;-39
2023/03/03 12:51:08;;;;;;;23.97;17.37;;;;;;;11.47;34.79;97835.50;6293494;28;20242;-39
2023/03/03 12:54:16;;;;;;;26.03;18.73;;;;;;;11.39;35.58;97838.59;6291420;28;20708;-39
2023/03/03 12:57:43;;;;;;;24.67;19.53;;;;;;;10.93;35.81;97838.63;6274177;28;20217;-39
2023/03/03 13:00:54;;;;;;;25.70;18.13;;;;;;;11.09;36.48;97823.72;6292218;28;20241;-39
2023/03/03 13:04:19;;;;;;;24.73;18.17;;;;;;;11.09;36.47;97816.53;6293570;28;20233;-40
2023/03/03 13:07:40;;;;;;;25.30;18.77;;;;;;;11.28;36.06;97821.59;6278016;28;20323;-39
2023/03/03 13:10:51;;;;;;;23.10;18.30;;;;;;;11.59;35.88;97813.03;6293833;28;20237;-39
2023/03/03 13:14:16;;;;;;;25.73;18.83;;;;;;;11.54;35.36;97818.28;6290721;28;20515;-39
2023/03/03 13:17:46;;;;;;;24.33;18.67;;;;;;;11.20;35.65;97806.81;6292744;28;20820;-39
2023/03/03 13:20:58;;;;;;;24.00;17.27;;;;;;;11.35;35.55;97811.59;6288639;28;20282;-39
2023/03/03 13:24:07;;;;;;;23.63;17.53;;;;;;;11.21;35.97;97816.44;6291868;28;20237;-39
2023/03/03 13:27:19;;;;;;;22.07;16.40;;;;;;;11.27;35.80;97795.97;6287141;28;20265;-39
2023/03/03 13:30:26;;;;;;;21.90;17.20;;;;;;;11.19;35.93;97794.53;6287333;28;20305;-39
2023/03/03 13:33:34;;;;;;;22.60;16.80;;;;;;;11.40;35.73;97802.84;6289576;28;20363;-38
2023/03/03 13:37:00;;;;;;;25.53;17.87;;;;;;;10.98;35.78;97801.38;6295596;28;20251;-39
2023/03/03 13:40:15;;;;;;;23.47;17.47;;;;;;;10.88;36.28;97795.06;6293232;28;20234;-39
2023/03/03 13:43:44;;;;;;;24.43;17.53;;;;;;;11.16;36.36;97795.03;6288585;28;20233;-39
2023/03/03 13:47:12;;;;;;;25.67;18.07;;;;;;;11.30;36.21;97793.66;6292063;28;20236;-39
2023/03/03 13:50:23;;;;;;;23.67;18.03;;;;;;;11.27;35.98;97795.97;6294569;28;20604;-39
2023/03/03 13:53:40;;;;;;;25.30;18.13;;;;;;;11.26;35.84;97792.50;6290896;28;20311;-39
2023/03/03 13:56:45;;;;;;;25.27;17.97;;;;;;;11.22;36.14;97790.56;6292354;28;20313;-39
2023/03/03 13:59:53;;;;;;;24.60;17.77;;;;;;;11.01;36.01;97790.25;6292663;28;20250;-39
2023/03/03 14:03:40;;;;;;;23.53;17.90;;;;;;;10.92;36.52;97789.03;6290892;28;20232;-39
2023/03/03 14:06:52;;;;;;;21.03;15.43;;;;;;;11.17;36.19;97785.97;6264127;28;20228;-39
2023/03/03 14:09:54;;;;;;;24.70;17.40;;;;;;;11.24;36.33;97796.50;6293996;28;20290;-39
2023/03/03 14:13:10;;;;;;;24.87;17.73;;;;;;;10.70;37.02;97762.28;6290895;28;20563;-38
2023/03/03 14:16:29;;;;;;;22.93;17.60;;;;;;;10.75;36.81;97754.38;6286939;28;20275;-39
2023/03/03 14:19:38;;;;;;;21.13;16.63;;;;;;;10.96;37.11;97784.03;6290032;28;20632;-39
2023/03/03 14:22:48;;;;;;;25.80;18.27;;;;;;;10.89;37.75;97789.53;6287994;28;20432;-38
2023/03/03 14:26:02;;;;;;;26.90;18.63;;;;;;;10.57;38.03;97787.34;6293408;28;20332;-39
2023/03/03 14:29:27;;;;;;;22.37;16.57;;;;;;;10.64;38.20;97778.41;6289772;28;20744;-39
2023/03/03 14:32:29;;;;;;;22.53;16.93;;;;;;;10.68;38.46;97774.22;6289012;28;20237;-39
2023/03/03 14:35:58;;;;;;;22.30;17.83;;;;;;;10.56;37.84;97780.41;6290200;28;20268;-39
2023/03/03 14:39:00;;;;;;;20.77;15.90;;;;;;;10.67;38.45;97772.59;6291540;28;20610;-39